Dr.kaiyo — JD2325 — position and weather

sailwx.info

Track history (hours):
 
Tides and Currents Weather Stations Pressure Air Temp Water Temp Dewpoint Dewpoint Depression Visibility Wind Speed Wind Dir Waves Ship Positions

Dr.kaiyo

Last reported at 2017-May-23 06:30 UTC. Time now 2017-May-23 06:45 UTC.
Position N 34°42' E 135°13'.

Length 31 m.

Type: Other ship. MMSI: 431301823.

Date/timePositionNaut miles runAvg speedWind from/ knotsBaromVisibWave heightAir tempDewpointWater temp
2017-May-23 06:30N 34°42' E 135°13'4 8.8
2017-May-23 06:00N 34°38' E 135°11'4 8.5
2017-May-23 05:30N 34°37' E 135°06'4 8.8
2017-May-23 05:00N 34°33' E 135°03'510.3
2017-May-23 04:29N 34°28' E 134°60'4 7.9
2017-May-23 03:57N 34°28' E 135°05'610.8
2017-May-23 03:26N 34°32' E 135°10'1 2.0
2017-May-23 03:00N 34°32' E 135°11'5 8.5
2017-May-23 02:27N 34°29' E 135°16'511.7
2017-May-23 02:00N 34°32' E 135°21'3 5.9
2017-May-23 01:30N 34°35' E 135°21'5 9.9
2017-May-23 01:00N 34°40' E 135°21'3 5.5
2017-May-23 00:30N 34°38' E 135°18'2 5.1
2017-May-23 00:01N 34°37' E 135°16'3 5.1
2017-May-22 23:30N 34°39' E 135°15'3 6.4
2017-May-22 23:00N 34°41' E 135°12'0 0.0
2017-May-22 03:28N 34°41' E 135°12'2 4.6
2017-May-22 03:00N 34°41' E 135°15'4 7.7
2017-May-22 02:30N 34°37' E 135°16'0 0.3
2017-May-22 02:00N 34°37' E 135°16'1 1.7
2017-May-22 01:30N 34°38' E 135°16'4 8.3
2017-May-22 01:00N 34°41' E 135°13'0 0.5
2017-May-22 00:30N 34°41' E 135°13'0 0.0
2017-May-22 00:00N 34°41' E 135°13'0 0.1
2017-May-21 23:31N 34°41' E 135°13'1 1.4
2017-May-21 23:00N 34°41' E 135°12'0 0.0
2017-May-21 22:30N 34°41' E 135°12'  
2017-May-19 05:42N 34°41' E 135°12'0 0.0
2017-May-19 05:30N 34°41' E 135°12'0 0.7
2017-May-19 05:00N 34°42' E 135°13'3 5.9
2017-May-19 04:30N 34°39' E 135°12'0 0.0
2017-May-19 04:00N 34°39' E 135°12'0 0.0
2017-May-19 03:30N 34°39' E 135°12'5 9.9
2017-May-19 03:00N 34°35' E 135°08'612.3
2017-May-19 02:30N 34°29' E 135°07'2 3.5
2017-May-19 02:00N 34°27' E 135°06'0 0.6
2017-May-19 01:25N 34°27' E 135°07'3 7.7
2017-May-19 01:00N 34°30' E 135°05'4 7.4
2017-May-19 00:31N 34°34' E 135°06'510.5
2017-May-19 00:00N 34°38' E 135°10'4 8.3
2017-May-18 23:31N 34°42' E 135°12'0 0.0
2017-May-18 06:27N 34°41' E 135°12'2 3.5
2017-May-18 06:00N 34°40' E 135°12'4 8.2
2017-May-18 05:30N 34°37' E 135°09'4 7.2
2017-May-18 05:00N 34°36' E 135°05'711.6
2017-May-18 04:23N 34°29' E 135°01'2 3.7
2017-May-18 03:57N 34°28' E 135°03'5 9.2
2017-May-18 03:26N 34°30' E 135°08'3 7.3
2017-May-18 03:00N 34°32' E 135°11'5 9.1
2017-May-18 02:30N 34°30' E 135°16'510.2
2017-May-18 01:59N 34°33' E 135°21'4 8.3
2017-May-18 01:30N 34°37' E 135°20'3 6.2
2017-May-18 01:00N 34°40' E 135°21'4 8.6
2017-May-18 00:30N 34°38' E 135°17'1 2.1
2017-May-18 00:00N 34°38' E 135°16'4 8.5
2017-May-17 23:30N 34°42' E 135°12'0 0.1
2017-May-17 23:00N 34°41' E 135°12'0 0.0
2017-May-17 05:15N 34°41' E 135°12'1 2.6
2017-May-17 05:01N 34°41' E 135°13'3 6.1
2017-May-17 04:30N 34°39' E 135°12'0 0.1
2017-May-17 04:00N 34°39' E 135°12'0 0.1
2017-May-17 03:30N 34°39' E 135°12'4 9.1
2017-May-17 03:00N 34°35' E 135°09'5 9.9
2017-May-17 02:29N 34°30' E 135°07'1 1.4
2017-May-17 02:00N 34°30' E 135°07'1 1.8
2017-May-17 01:30N 34°29' E 135°07'3 5.6
2017-May-17 01:00N 34°32' E 135°05'5 9.4
2017-May-17 00:30N 34°36' E 135°08'510.5
2017-May-17 00:00N 34°40' E 135°12'1 2.8
2017-May-16 23:30N 34°41' E 135°12'0 0.0
2017-May-16 06:35N 34°41' E 135°12'0 0.0
2017-May-16 06:31N 34°41' E 135°12'4 8.0
2017-May-16 06:00N 34°39' E 135°16'4 7.8
2017-May-16 05:30N 34°36' E 135°13'5 9.3
2017-May-16 05:00N 34°35' E 135°08'510.2
2017-May-16 04:31N 34°39' E 135°12'0 0.3
2017-May-16 04:00N 34°39' E 135°12'0 0.0
2017-May-16 03:30N 34°39' E 135°12'2 4.4
2017-May-16 03:00N 34°37' E 135°11'611.3
2017-May-16 02:30N 34°32' E 135°07'1 2.0
2017-May-16 02:00N 34°31' E 135°07'1 1.4
2017-May-16 01:30N 34°31' E 135°06'3 5.1
2017-May-16 01:00N 34°33' E 135°05'2 3.9
2017-May-16 00:30N 34°35' E 135°06'612.4
2017-May-16 00:00N 34°39' E 135°11'2 5.0
2017-May-15 23:30N 34°41' E 135°12'  
Track history (hours):
 
Tides and Currents Weather Stations Pressure Air Temp Water Temp Dewpoint Dewpoint Depression Visibility Wind Speed Wind Dir Waves Ship Positions

Dr.kaiyo

Last reported at 2017-May-23 06:30 UTC. Time now 2017-May-23 06:45 UTC.
Position N 34°42' E 135°13'.

Length 31 m.

Type: Other ship. MMSI: 431301823.

Date/timePositionNaut miles runAvg speedWind from/ knotsBaromVisibWave heightAir tempDewpointWater temp
2017-May-23 06:30N 34°42' E 135°13'4 8.8
2017-May-23 06:00N 34°38' E 135°11'4 8.5
2017-May-23 05:30N 34°37' E 135°06'4 8.8
2017-May-23 05:00N 34°33' E 135°03'510.3
2017-May-23 04:29N 34°28' E 134°60'4 7.9
2017-May-23 03:57N 34°28' E 135°05'610.8
2017-May-23 03:26N 34°32' E 135°10'1 2.0
2017-May-23 03:00N 34°32' E 135°11'5 8.5
2017-May-23 02:27N 34°29' E 135°16'511.7
2017-May-23 02:00N 34°32' E 135°21'3 5.9
2017-May-23 01:30N 34°35' E 135°21'5 9.9
2017-May-23 01:00N 34°40' E 135°21'3 5.5
2017-May-23 00:30N 34°38' E 135°18'2 5.1
2017-May-23 00:01N 34°37' E 135°16'3 5.1
2017-May-22 23:30N 34°39' E 135°15'3 6.4
2017-May-22 23:00N 34°41' E 135°12'0 0.0
2017-May-22 03:28N 34°41' E 135°12'2 4.6
2017-May-22 03:00N 34°41' E 135°15'4 7.7
2017-May-22 02:30N 34°37' E 135°16'0 0.3
2017-May-22 02:00N 34°37' E 135°16'1 1.7
2017-May-22 01:30N 34°38' E 135°16'4 8.3
2017-May-22 01:00N 34°41' E 135°13'0 0.5
2017-May-22 00:30N 34°41' E 135°13'0 0.0
2017-May-22 00:00N 34°41' E 135°13'0 0.1
2017-May-21 23:31N 34°41' E 135°13'1 1.4
2017-May-21 23:00N 34°41' E 135°12'0 0.0
2017-May-21 22:30N 34°41' E 135°12'  
2017-May-19 05:42N 34°41' E 135°12'0 0.0
2017-May-19 05:30N 34°41' E 135°12'0 0.7
2017-May-19 05:00N 34°42' E 135°13'3 5.9
2017-May-19 04:30N 34°39' E 135°12'0 0.0
2017-May-19 04:00N 34°39' E 135°12'0 0.0
2017-May-19 03:30N 34°39' E 135°12'5 9.9
2017-May-19 03:00N 34°35' E 135°08'612.3
2017-May-19 02:30N 34°29' E 135°07'2 3.5
2017-May-19 02:00N 34°27' E 135°06'0 0.6
2017-May-19 01:25N 34°27' E 135°07'3 7.7
2017-May-19 01:00N 34°30' E 135°05'4 7.4
2017-May-19 00:31N 34°34' E 135°06'510.5
2017-May-19 00:00N 34°38' E 135°10'4 8.3
2017-May-18 23:31N 34°42' E 135°12'0 0.0
2017-May-18 06:27N 34°41' E 135°12'2 3.5
2017-May-18 06:00N 34°40' E 135°12'4 8.2
2017-May-18 05:30N 34°37' E 135°09'4 7.2
2017-May-18 05:00N 34°36' E 135°05'711.6
2017-May-18 04:23N 34°29' E 135°01'2 3.7
2017-May-18 03:57N 34°28' E 135°03'5 9.2
2017-May-18 03:26N 34°30' E 135°08'3 7.3
2017-May-18 03:00N 34°32' E 135°11'5 9.1
2017-May-18 02:30N 34°30' E 135°16'510.2
2017-May-18 01:59N 34°33' E 135°21'4 8.3
2017-May-18 01:30N 34°37' E 135°20'3 6.2
2017-May-18 01:00N 34°40' E 135°21'4 8.6
2017-May-18 00:30N 34°38' E 135°17'1 2.1
2017-May-18 00:00N 34°38' E 135°16'4 8.5
2017-May-17 23:30N 34°42' E 135°12'0 0.1
2017-May-17 23:00N 34°41' E 135°12'0 0.0
2017-May-17 05:15N 34°41' E 135°12'1 2.6
2017-May-17 05:01N 34°41' E 135°13'3 6.1
2017-May-17 04:30N 34°39' E 135°12'0 0.1
2017-May-17 04:00N 34°39' E 135°12'0 0.1
2017-May-17 03:30N 34°39' E 135°12'4 9.1
2017-May-17 03:00N 34°35' E 135°09'5 9.9
2017-May-17 02:29N 34°30' E 135°07'1 1.4
2017-May-17 02:00N 34°30' E 135°07'1 1.8
2017-May-17 01:30N 34°29' E 135°07'3 5.6
2017-May-17 01:00N 34°32' E 135°05'5 9.4
2017-May-17 00:30N 34°36' E 135°08'510.5
2017-May-17 00:00N 34°40' E 135°12'1 2.8
2017-May-16 23:30N 34°41' E 135°12'0 0.0
2017-May-16 06:35N 34°41' E 135°12'0 0.0
2017-May-16 06:31N 34°41' E 135°12'4 8.0
2017-May-16 06:00N 34°39' E 135°16'4 7.8
2017-May-16 05:30N 34°36' E 135°13'5 9.3
2017-May-16 05:00N 34°35' E 135°08'510.2
2017-May-16 04:31N 34°39' E 135°12'0 0.3
2017-May-16 04:00N 34°39' E 135°12'0 0.0
2017-May-16 03:30N 34°39' E 135°12'2 4.4
2017-May-16 03:00N 34°37' E 135°11'611.3
2017-May-16 02:30N 34°32' E 135°07'1 2.0
2017-May-16 02:00N 34°31' E 135°07'1 1.4
2017-May-16 01:30N 34°31' E 135°06'3 5.1
2017-May-16 01:00N 34°33' E 135°05'2 3.9
2017-May-16 00:30N 34°35' E 135°06'612.4
2017-May-16 00:00N 34°39' E 135°11'2 5.0
2017-May-15 23:30N 34°41' E 135°12'  

Dump ship's entire track history